createdAt,value
2019-03-23T00:03:45.781Z,30.00
2019-03-23T00:07:50.782Z,28.97
2019-03-23T00:11:55.809Z,28.67
2019-03-23T00:16:00.817Z,30.43
2019-03-23T00:20:06.994Z,26.73
2019-03-23T00:24:11.990Z,27.90
2019-03-23T00:28:18.125Z,30.10
2019-03-23T00:32:23.205Z,28.77
2019-03-23T00:36:28.428Z,28.27
2019-03-23T00:40:33.453Z,29.30
2019-03-23T00:44:38.489Z,27.43
2019-03-23T00:48:43.505Z,27.83
2019-03-23T00:52:48.544Z,25.43
2019-03-23T00:56:53.554Z,26.63
2019-03-23T01:00:58.612Z,28.40
2019-03-23T01:05:04.695Z,30.23
2019-03-23T01:09:09.694Z,30.30
2019-03-23T01:13:14.687Z,28.93
2019-03-23T01:17:19.694Z,29.50
2019-03-23T01:21:24.785Z,32.90
2019-03-23T01:25:29.853Z,35.33
2019-03-23T01:29:34.963Z,36.73
2019-03-23T01:33:41.180Z,38.77
2019-03-23T01:37:47.235Z,35.13
2019-03-23T01:41:52.230Z,32.97
2019-03-23T01:45:57.341Z,32.80
2019-03-23T01:50:02.346Z,32.40
2019-03-23T01:54:07.314Z,34.60
2019-03-23T01:58:12.385Z,33.77
2019-03-23T02:02:17.425Z,34.37
2019-03-23T02:06:22.423Z,32.90
2019-03-23T02:10:27.421Z,34.70
2019-03-23T02:14:32.416Z,38.37
2019-03-23T02:18:37.401Z,37.20
2019-03-23T02:22:42.497Z,38.20
2019-03-23T02:26:47.493Z,37.50
2019-03-23T02:30:52.518Z,34.90
2019-03-23T02:34:57.519Z,38.33
2019-03-23T02:39:02.515Z,36.77
2019-03-23T02:43:07.594Z,36.10
2019-03-23T02:47:12.642Z,38.57
2019-03-23T02:51:17.667Z,40.43
2019-03-23T02:55:22.662Z,38.87
2019-03-23T02:59:27.638Z,39.47
2019-03-23T03:03:32.654Z,39.67
2019-03-23T03:07:42.573Z,37.47
2019-03-23T03:11:44.277Z,37.50
2019-03-23T03:15:49.388Z,37.93
2019-03-23T03:19:54.361Z,39.10
2019-03-23T03:23:59.455Z,38.03
2019-03-23T03:28:04.726Z,38.43
2019-03-23T03:32:09.794Z,40.00
2019-03-23T03:36:14.965Z,37.47
2019-03-23T03:40:19.966Z,38.33
2019-03-23T03:44:24.945Z,41.10
2019-03-23T03:48:30.169Z,40.53
2019-03-23T03:52:35.275Z,40.17
2019-03-23T03:56:40.330Z,39.67
2019-03-23T04:00:45.371Z,38.77
2019-03-23T04:04:51.329Z,38.67
2019-03-23T04:08:56.358Z,38.83
2019-03-23T04:13:01.361Z,37.77
2019-03-23T04:17:06.372Z,38.30
2019-03-23T04:21:11.390Z,36.10
2019-03-23T04:25:16.375Z,38.47
2019-03-23T04:29:21.495Z,35.73
2019-03-23T04:33:26.539Z,34.33
2019-03-23T04:37:31.578Z,36.73
2019-03-23T04:41:36.598Z,35.60
2019-03-23T04:45:41.678Z,38.77
2019-03-23T04:49:46.678Z,38.40
2019-03-23T04:53:51.701Z,40.03
2019-03-23T04:57:58.661Z,42.77
2019-03-23T05:02:03.661Z,40.83
2019-03-23T05:06:08.660Z,40.57
2019-03-23T05:10:14.185Z,39.37
2019-03-23T05:14:19.181Z,36.37
2019-03-23T05:18:24.309Z,37.40
2019-03-23T05:22:29.314Z,33.00
2019-03-23T05:26:34.381Z,35.03
2019-03-23T05:30:39.357Z,25.00
2019-03-23T05:34:44.362Z,22.37
2019-03-23T05:38:49.655Z,17.97
2019-03-23T05:42:54.981Z,15.27
2019-03-23T05:47:00.391Z,14.97
2019-03-23T05:51:05.637Z,16.30
2019-03-23T05:55:10.985Z,21.90
2019-03-23T05:59:16.442Z,20.47
2019-03-23T06:03:21.825Z,19.47
2019-03-23T06:07:27.113Z,17.23
2019-03-23T06:11:32.408Z,15.37
2019-03-23T06:15:39.469Z,15.10
2019-03-23T06:19:45.749Z,13.50
2019-03-23T06:23:51.045Z,13.27
2019-03-23T06:27:56.373Z,12.73
2019-03-23T06:32:01.635Z,11.43
2019-03-23T06:36:08.022Z,10.33
2019-03-23T06:40:14.601Z,9.77
2019-03-23T06:44:20.688Z,10.00
2019-03-23T06:48:26.169Z,10.50
2019-03-23T06:52:31.555Z,10.87
2019-03-23T06:56:38.405Z,10.20
2019-03-23T07:00:44.663Z,8.37
2019-03-23T07:04:50.010Z,8.73
2019-03-23T07:08:55.298Z,8.13
2019-03-23T07:13:00.596Z,7.97
2019-03-23T07:17:05.841Z,7.50
2019-03-23T07:21:11.122Z,7.23
2019-03-23T07:25:16.550Z,8.73
2019-03-23T07:29:21.850Z,6.03
2019-03-23T07:33:27.273Z,6.23
2019-03-23T07:37:33.689Z,6.33
2019-03-23T07:41:38.938Z,6.40
2019-03-23T07:45:44.223Z,5.43
2019-03-23T07:49:49.577Z,6.27
2019-03-23T07:53:54.964Z,5.40
2019-03-23T07:58:00.259Z,5.00
2019-03-23T08:02:05.654Z,6.00
2019-03-23T08:06:10.942Z,5.53
2019-03-23T08:10:30.528Z,5.60
2019-03-23T08:14:36.256Z,6.17
2019-03-23T08:18:41.658Z,6.03
2019-03-23T08:22:47.041Z,4.93
2019-03-23T08:26:52.494Z,5.80
2019-03-23T08:30:57.781Z,4.63
2019-03-23T08:35:03.069Z,6.40
2019-03-23T08:39:08.650Z,4.60
2019-03-23T08:43:13.910Z,5.17
2019-03-23T08:47:19.207Z,4.87
2019-03-23T08:51:24.500Z,5.20
2019-03-23T08:55:29.791Z,4.77
2019-03-23T08:59:36.983Z,5.57
2019-03-23T09:03:52.097Z,5.43
2019-03-23T09:07:49.448Z,5.70
2019-03-23T09:11:54.953Z,5.73
2019-03-23T09:16:00.354Z,5.13
2019-03-23T09:20:08.737Z,6.10
2019-03-23T09:24:14.737Z,5.40
2019-03-23T09:28:20.174Z,6.10
2019-03-23T09:32:25.468Z,5.60
2019-03-23T09:36:30.982Z,5.63
2019-03-23T09:40:36.489Z,5.63
2019-03-23T09:44:43.718Z,6.67
2019-03-23T09:48:48.669Z,5.53
2019-03-23T09:52:54.061Z,5.43
2019-03-23T09:57:00.438Z,6.37
2019-03-23T10:01:05.733Z,8.77
2019-03-23T10:05:11.245Z,6.60
2019-03-23T10:09:16.506Z,6.10
2019-03-23T10:13:21.906Z,6.77
2019-03-23T10:17:27.269Z,6.90
2019-03-23T10:21:32.541Z,7.00
2019-03-23T10:25:37.884Z,7.77
2019-03-23T10:29:43.405Z,7.00
2019-03-23T10:33:49.846Z,7.40
2019-03-23T10:37:57.564Z,7.97
2019-03-23T10:42:02.833Z,6.77
2019-03-23T10:46:08.706Z,6.93
2019-03-23T10:50:14.334Z,8.27
2019-03-23T10:54:19.717Z,8.97
2019-03-23T10:58:25.060Z,8.50
2019-03-23T11:02:30.336Z,8.33
2019-03-23T11:06:36.667Z,8.83
2019-03-23T11:10:42.743Z,8.43
2019-03-23T11:14:48.478Z,7.53
2019-03-23T11:18:54.162Z,8.73
2019-03-23T11:23:00.138Z,8.83
2019-03-23T11:27:05.657Z,8.97
2019-03-23T11:31:11.633Z,8.37
2019-03-23T11:35:18.879Z,8.57
2019-03-23T11:39:24.231Z,8.70
2019-03-23T11:43:29.505Z,8.63
2019-03-23T11:47:34.947Z,9.10
2019-03-23T11:51:40.233Z,8.37
2019-03-23T11:55:45.493Z,9.47
2019-03-23T11:59:50.895Z,9.10
2019-03-23T12:03:56.394Z,8.63
2019-03-23T12:08:01.703Z,9.10
2019-03-23T12:12:07.106Z,8.60
2019-03-23T12:16:12.388Z,10.17
2019-03-23T12:20:17.698Z,10.43
2019-03-23T12:24:23.007Z,10.40
2019-03-23T12:28:28.369Z,10.27
2019-03-23T12:32:33.649Z,9.60
2019-03-23T12:36:38.920Z,10.30
2019-03-23T12:40:44.299Z,10.27
2019-03-23T12:44:49.582Z,9.93
2019-03-23T12:48:54.946Z,10.27
2019-03-23T12:53:00.258Z,11.47
2019-03-23T12:57:05.537Z,11.03
2019-03-23T13:01:10.910Z,10.73
2019-03-23T13:05:16.371Z,10.80
2019-03-23T13:09:21.693Z,10.50
2019-03-23T13:13:26.987Z,10.57
2019-03-23T13:17:32.387Z,10.10
2019-03-23T13:21:37.610Z,9.90
2019-03-23T13:25:42.910Z,10.20
2019-03-23T13:29:48.193Z,9.70
2019-03-23T13:33:53.848Z,9.83
2019-03-23T13:37:59.111Z,11.00
2019-03-23T13:42:04.506Z,10.03
2019-03-23T13:46:09.827Z,9.63
2019-03-23T13:50:19.270Z,10.67
2019-03-23T13:54:24.619Z,11.03
2019-03-23T13:58:29.942Z,8.53
2019-03-23T14:02:35.249Z,9.50
2019-03-23T14:06:40.613Z,17.70
2019-03-23T14:10:45.894Z,9.80
2019-03-23T14:14:51.199Z,10.27
2019-03-23T14:18:56.464Z,13.03
2019-03-23T14:23:02.900Z,16.23
2019-03-23T14:27:08.374Z,17.23
2019-03-23T14:31:13.714Z,17.30
2019-03-23T14:35:19.969Z,17.87
2019-03-23T14:39:25.229Z,17.50
2019-03-23T14:43:30.513Z,17.87
2019-03-23T14:47:36.955Z,17.10
2019-03-23T14:51:42.228Z,17.20
2019-03-23T14:55:47.562Z,16.73
2019-03-23T14:59:52.803Z,18.73
2019-03-23T15:03:58.170Z,15.90
2019-03-23T15:08:03.497Z,17.23
2019-03-23T15:12:14.891Z,17.80
2019-03-23T15:16:15.726Z,16.60
2019-03-23T15:20:21.002Z,16.00
2019-03-23T15:24:26.381Z,17.23
2019-03-23T15:28:31.714Z,16.87
2019-03-23T15:32:37.010Z,17.17
2019-03-23T15:36:42.320Z,17.67
2019-03-23T15:40:47.565Z,17.93
2019-03-23T15:44:52.866Z,18.67
2019-03-23T15:48:58.165Z,19.87
2019-03-23T15:53:03.449Z,25.53
2019-03-23T15:57:08.731Z,29.90
2019-03-23T16:01:14.023Z,30.87
2019-03-23T16:05:19.362Z,35.37
2019-03-23T16:09:24.650Z,37.87
2019-03-23T16:13:29.933Z,38.73
2019-03-23T16:17:35.327Z,39.77
2019-03-23T16:21:40.614Z,39.80
2019-03-23T16:25:45.882Z,45.63
2019-03-23T16:29:52.146Z,47.40
2019-03-23T16:33:58.690Z,56.20
2019-03-23T16:38:04.057Z,55.20
2019-03-23T16:42:09.358Z,57.43
2019-03-23T16:46:14.632Z,60.07
2019-03-23T16:50:19.926Z,59.17
2019-03-23T16:54:25.232Z,60.87
2019-03-23T16:58:30.513Z,64.20
2019-03-23T17:02:35.859Z,60.43
2019-03-23T17:06:46.399Z,59.03
2019-03-23T17:10:48.151Z,58.97
2019-03-23T17:14:53.486Z,58.93
2019-03-23T17:19:00.650Z,63.27
2019-03-23T17:23:05.908Z,60.97
2019-03-23T17:27:12.171Z,61.03
2019-03-23T17:31:17.690Z,61.80
2019-03-23T17:35:24.057Z,59.87
2019-03-23T17:39:29.358Z,60.90
2019-03-23T17:43:34.653Z,62.50
2019-03-23T17:47:40.009Z,63.83
2019-03-23T17:51:45.297Z,59.73
2019-03-23T17:55:50.688Z,60.37
2019-03-23T17:59:55.967Z,61.63
2019-03-23T18:04:01.259Z,58.37
2019-03-23T18:08:06.557Z,57.07
2019-03-23T18:12:12.069Z,54.97
2019-03-23T18:16:17.369Z,57.30
2019-03-23T18:20:23.706Z,56.73
2019-03-23T18:24:29.410Z,55.43
2019-03-23T18:28:35.278Z,54.10
2019-03-23T18:32:41.202Z,63.37
2019-03-23T18:36:48.181Z,56.43
2019-03-23T18:40:53.628Z,54.77
2019-03-23T18:44:59.005Z,52.77
2019-03-23T18:49:04.466Z,53.77
2019-03-23T18:53:10.018Z,53.07
2019-03-23T18:57:15.320Z,53.60
2019-03-23T19:01:20.602Z,51.17
2019-03-23T19:05:25.938Z,61.58
2019-03-23T19:09:31.229Z,51.20
2019-03-23T19:13:38.059Z,53.70
2019-03-23T19:17:43.536Z,43.83
2019-03-23T19:21:48.870Z,35.73
2019-03-23T19:25:54.153Z,33.47
2019-03-23T19:29:59.510Z,30.13
2019-03-23T19:34:05.234Z,30.00
2019-03-23T19:38:10.536Z,30.73
2019-03-23T19:42:15.830Z,29.83
2019-03-23T19:46:21.093Z,28.97
2019-03-23T19:50:26.369Z,32.13
2019-03-23T19:54:31.656Z,29.40
2019-03-23T19:58:36.931Z,32.10
2019-03-23T20:02:42.205Z,30.40
2019-03-23T20:06:47.493Z,32.10
2019-03-23T20:10:52.776Z,40.17
2019-03-23T20:14:58.138Z,32.50
2019-03-23T20:19:03.462Z,33.73
2019-03-23T20:23:08.743Z,37.50
2019-03-23T20:27:14.094Z,38.03
2019-03-23T20:31:20.457Z,36.97
2019-03-23T20:35:26.640Z,35.73
2019-03-23T20:39:32.011Z,36.93
2019-03-23T20:43:37.293Z,37.27
2019-03-23T20:47:43.081Z,37.77
2019-03-23T20:51:48.929Z,36.33
2019-03-23T20:55:54.196Z,36.77
2019-03-23T21:00:01.430Z,37.33
2019-03-23T21:04:06.779Z,39.73
2019-03-23T21:08:11.796Z,39.73
2019-03-23T21:12:16.801Z,37.80
2019-03-23T21:16:21.795Z,39.40
2019-03-23T21:20:26.778Z,39.83
2019-03-23T21:24:31.791Z,39.23
2019-03-23T21:28:37.861Z,37.20
2019-03-23T21:32:43.161Z,37.13
2019-03-23T21:36:48.435Z,35.37
2019-03-23T21:40:53.689Z,34.53
2019-03-23T21:44:58.966Z,37.60
2019-03-23T21:49:04.250Z,36.43
2019-03-23T21:53:09.270Z,37.73
2019-03-23T21:57:14.652Z,35.57
2019-03-23T22:01:19.906Z,36.83
2019-03-23T22:05:25.198Z,36.10
2019-03-23T22:09:30.484Z,37.37
2019-03-23T22:13:35.763Z,38.03
2019-03-23T22:17:41.050Z,39.20
2019-03-23T22:21:46.325Z,41.07
2019-03-23T22:25:51.590Z,41.20
2019-03-23T22:29:56.866Z,43.27
2019-03-23T22:34:02.182Z,44.00
2019-03-23T22:38:07.461Z,42.00
2019-03-23T22:42:13.110Z,44.80
2019-03-23T22:46:18.463Z,43.07
2019-03-23T22:50:23.766Z,45.80
2019-03-23T22:54:29.362Z,43.43
2019-03-23T22:58:34.878Z,47.77
2019-03-23T23:02:40.162Z,45.47
2019-03-23T23:06:46.402Z,45.07
2019-03-23T23:10:51.684Z,47.50
2019-03-23T23:15:04.428Z,48.00
2019-03-23T23:19:03.877Z,48.77
2019-03-23T23:23:09.154Z,48.57
2019-03-23T23:27:14.404Z,49.63
2019-03-23T23:31:19.693Z,50.97
2019-03-23T23:35:24.986Z,50.03
2019-03-23T23:39:30.362Z,50.10
2019-03-23T23:43:35.720Z,49.83
2019-03-23T23:47:40.979Z,48.20
2019-03-23T23:51:50.374Z,51.50
2019-03-23T23:55:53.311Z,50.77
2019-03-23T23:59:58.605Z,50.63
